Impacts TAF Board INFO
FOR SITUATIONAL AWARENESS. NOT TO BE USED FOR FLIGHT PLANNING PURPOSES.
IDs:

KASD - Slidell Arpt, LA, US

Issued at 1138 UTC 18 Jan 2018
Updated at 1722 UTC 18 Jan 2018
Potential Impact None Slight Moderate High
Time1653Z 18/18Z 18/19Z 18/20Z 18/21Z 18/22Z 18/23Z 19/00Z 19/01Z 19/02Z 19/03Z 19/04Z 19/05Z 19/06Z>>
Type OBS PRVL PRVL PRVL PRVL PRVL PRVL PRVL PRVL PRVL PRVL PRVL PRVL PRVL
VIS 10 >6 >6 >6 >6 >6 >6 >6 >6 >6 >6 >6 >6 >6
CIG -- -- -- -- -- -- -- -- -- -- -- -- -- --
Cover CLR SKC SKC SKC SKC SKC SKC SKC SKC SKC SKC SKC SKC SKC
FltCat VFR VFR VFR VFR VFR VFR VFR VFR VFR VFR VFR VFR VFR VFR
WX -- -- -- -- -- -- -- -- -- -- -- -- -- --
WDir 10 360 360 360 360 360 360 360 360 360 360 360 360 360
WSpd 7 4 4 4 4 4 4 4 4 4 4 4 4 4
WGst -- -- -- -- -- -- -- -- -- -- -- -- -- --

Raw TAF
KASD 181138Z 1812/1912 36004KT P6SM SKC

Raw METAR
KASD 181653Z AUTO 01007KT 10SM CLR 02/M11 A3059 RMK AO2 SLP357 T00221111
KASD 181553Z AUTO 01008KT 10SM CLR M01/M10 A3060 RMK AO2 SLP362 T10061100
KASD 181453Z AUTO 02010KT 10SM CLR M03/M09 A3060 RMK AO2 SLP360 T10331094 53011

METAR Board
Radar Display
Forecast Discussion

FOR SITUATIONAL AWARENESS. NOT TO BE USED FOR FLIGHT PLANNING PURPOSES.